createdAt,value
2022-08-07T00:02:40.717Z,63.92
2022-08-07T00:05:25.124Z,63.75
2022-08-07T00:07:59.821Z,63.96
2022-08-07T00:10:30.843Z,64.15
2022-08-07T00:13:25.838Z,64.39
2022-08-07T00:15:55.916Z,64.27
2022-08-07T00:18:50.793Z,64.54
2022-08-07T00:21:57.027Z,64.62
2022-08-07T00:24:07.523Z,64.55
2022-08-07T00:27:07.424Z,64.51
2022-08-07T00:29:37.074Z,64.68
2022-08-07T00:32:13.554Z,64.74
2022-08-07T00:34:42.016Z,64.72
2022-08-07T00:37:11.216Z,65.01
2022-08-07T00:39:45.209Z,64.90
2022-08-07T00:42:47.348Z,64.81
2022-08-07T00:45:22.944Z,64.74
2022-08-07T00:48:08.966Z,65.13
2022-08-07T00:50:50.694Z,65.25
2022-08-07T00:53:23.850Z,65.72
2022-08-07T00:56:00.470Z,65.99
2022-08-07T00:58:57.833Z,66.11
2022-08-07T01:01:30.047Z,66.18
2022-08-07T01:04:43.004Z,66.21
2022-08-07T01:07:13.144Z,66.12
2022-08-07T01:10:07.038Z,66.13
2022-08-07T01:12:55.297Z,66.31
2022-08-07T01:16:00.531Z,66.15
2022-08-07T01:18:16.952Z,66.28
2022-08-07T01:21:22.487Z,66.28
2022-08-07T01:24:18.651Z,66.41
2022-08-07T01:27:19.615Z,66.49
2022-08-07T01:30:02.448Z,66.23
2022-08-07T01:32:56.488Z,66.42
2022-08-07T01:35:36.991Z,66.52
2022-08-07T01:38:41.576Z,66.86
2022-08-07T01:41:25.821Z,66.68
2022-08-07T01:43:56.869Z,66.89
2022-08-07T01:46:26.670Z,67.08
2022-08-07T01:49:21.421Z,66.84
2022-08-07T01:52:17.729Z,67.11
2022-08-07T01:55:22.287Z,67.21
2022-08-07T01:58:05.833Z,67.10
2022-08-07T02:00:58.056Z,67.26
2022-08-07T02:04:09.311Z,67.30
2022-08-07T02:06:43.313Z,67.32
2022-08-07T02:09:52.429Z,67.38
2022-08-07T02:12:36.385Z,67.23
2022-08-07T02:15:31.588Z,67.46
2022-08-07T02:18:10.480Z,67.77
2022-08-07T02:20:42.794Z,67.73
2022-08-07T02:23:23.793Z,67.55
2022-08-07T02:26:33.876Z,67.55
2022-08-07T02:29:28.977Z,67.58
2022-08-07T02:32:02.681Z,67.51
2022-08-07T02:34:34.045Z,67.71
2022-08-07T02:37:08.232Z,67.47
2022-08-07T02:40:01.628Z,67.76
2022-08-07T02:42:57.421Z,68.02
2022-08-07T02:46:00.962Z,67.64
2022-08-07T02:48:54.715Z,68.09
2022-08-07T02:51:41.845Z,68.35
2022-08-07T02:54:15.368Z,68.57
2022-08-07T02:56:48.117Z,68.29
2022-08-07T02:59:24.200Z,68.52
2022-08-07T03:02:02.201Z,68.67
2022-08-07T03:04:32.176Z,68.49
2022-08-07T03:08:04.679Z,68.76
2022-08-07T03:10:18.003Z,69.19
2022-08-07T03:13:19.306Z,69.14
2022-08-07T03:15:55.580Z,69.10
2022-08-07T03:18:34.519Z,68.78
2022-08-07T03:21:08.264Z,69.03
2022-08-07T03:24:17.864Z,69.40
2022-08-07T03:26:32.107Z,69.30
2022-08-07T03:29:37.555Z,69.66
2022-08-07T03:32:13.059Z,69.49
2022-08-07T03:34:47.472Z,69.73
2022-08-07T03:38:04.784Z,70.24
2022-08-07T03:40:36.537Z,70.15
2022-08-07T03:43:36.056Z,70.42
2022-08-07T03:46:18.268Z,70.43
2022-08-07T03:49:14.440Z,70.40
2022-08-07T03:52:22.886Z,70.03
2022-08-07T03:55:07.295Z,70.18
2022-08-07T03:58:34.913Z,70.17
2022-08-07T04:00:59.422Z,70.20
2022-08-07T04:03:29.636Z,70.14
2022-08-07T04:06:37.926Z,70.11
2022-08-07T04:09:45.488Z,70.19
2022-08-07T04:12:28.898Z,70.09
2022-08-07T04:15:00.153Z,70.08
2022-08-07T04:18:31.128Z,69.97
2022-08-07T04:20:20.146Z,69.84
2022-08-07T04:22:53.585Z,69.93
2022-08-07T04:25:54.803Z,69.86
2022-08-07T04:28:27.142Z,69.86
2022-08-07T04:30:58.595Z,69.90
2022-08-07T04:33:35.276Z,69.75
2022-08-07T04:36:06.376Z,69.87
2022-08-07T04:39:01.307Z,69.82
2022-08-07T04:41:30.953Z,69.48
2022-08-07T04:44:14.602Z,69.46
2022-08-07T04:47:04.813Z,69.35
2022-08-07T04:49:47.594Z,69.32
2022-08-07T04:53:27.822Z,69.24
2022-08-07T04:58:12.229Z,69.26
2022-08-07T05:00:12.875Z,69.42
2022-08-07T05:03:03.553Z,69.47
2022-08-07T05:05:57.564Z,69.14
2022-08-07T05:09:01.049Z,69.14
2022-08-07T05:11:56.993Z,69.09
2022-08-07T05:14:59.211Z,68.90
2022-08-07T05:18:13.289Z,69.08
2022-08-07T05:20:50.172Z,69.11
2022-08-07T05:23:52.002Z,68.90
2022-08-07T05:26:24.250Z,68.59
2022-08-07T05:29:25.694Z,68.70
2022-08-07T05:32:08.852Z,68.38
2022-08-07T05:34:38.225Z,68.30
2022-08-07T05:37:13.906Z,68.59
2022-08-07T05:40:17.291Z,68.13
2022-08-07T05:43:13.629Z,67.98
2022-08-07T05:45:46.988Z,67.67
2022-08-07T05:48:26.369Z,67.65
2022-08-07T05:51:01.591Z,67.83
2022-08-07T05:54:14.069Z,67.55
2022-08-07T05:56:47.289Z,67.50
2022-08-07T05:59:22.505Z,67.85
2022-08-07T06:02:22.597Z,67.60
2022-08-07T06:05:15.392Z,67.26
2022-08-07T06:08:13.406Z,67.55
2022-08-07T06:10:37.562Z,67.57
2022-08-07T06:14:12.788Z,67.58
2022-08-07T06:16:22.822Z,67.70
2022-08-07T06:19:51.775Z,67.41
2022-08-07T06:22:20.707Z,67.70
2022-08-07T06:25:18.861Z,67.00
2022-08-07T06:28:01.157Z,66.78
2022-08-07T06:30:37.971Z,66.90
2022-08-07T06:33:38.570Z,66.95
2022-08-07T06:36:13.916Z,67.05
2022-08-07T06:40:13.487Z,66.63
2022-08-07T06:42:35.073Z,66.69
2022-08-07T06:45:37.609Z,67.07
2022-08-07T06:48:31.389Z,66.54
2022-08-07T06:51:31.178Z,66.81
2022-08-07T06:55:29.149Z,66.88
2022-08-07T06:57:39.393Z,66.83
2022-08-07T07:00:17.865Z,66.62
2022-08-07T07:02:53.875Z,66.81
2022-08-07T07:06:03.226Z,66.42
2022-08-07T07:08:18.721Z,66.70
2022-08-07T07:10:56.787Z,66.39
2022-08-07T07:13:57.402Z,66.14
2022-08-07T07:16:58.814Z,66.66
2022-08-07T07:19:57.708Z,66.63
2022-08-07T07:22:36.262Z,66.38
2022-08-07T07:26:30.903Z,65.73
2022-08-07T07:28:42.167Z,65.58
2022-08-07T07:31:04.832Z,65.35
2022-08-07T07:33:38.473Z,65.11
2022-08-07T07:36:13.317Z,64.92
2022-08-07T07:38:49.412Z,64.98
2022-08-07T07:41:24.656Z,65.13
2022-08-07T07:44:21.382Z,63.93
2022-08-07T07:47:04.302Z,63.74
2022-08-07T07:50:34.753Z,63.39
2022-08-07T07:52:36.589Z,62.56
2022-08-07T07:55:07.940Z,60.92
2022-08-07T07:57:51.862Z,59.27
2022-08-07T08:00:31.568Z,59.39
2022-08-07T08:03:17.021Z,59.51
2022-08-07T08:06:01.633Z,58.44
2022-08-07T08:08:36.880Z,57.75
2022-08-07T08:11:16.392Z,56.66
2022-08-07T08:13:58.764Z,57.10
2022-08-07T08:16:35.141Z,56.89
2022-08-07T08:19:18.187Z,55.94
2022-08-07T08:22:17.356Z,56.10
2022-08-07T08:25:25.119Z,56.10
2022-08-07T08:28:04.147Z,56.13
2022-08-07T08:30:34.605Z,56.32
2022-08-07T08:33:05.520Z,55.87
2022-08-07T08:35:49.651Z,55.31
2022-08-07T08:38:25.886Z,54.02
2022-08-07T08:41:05.627Z,53.79
2022-08-07T08:43:59.175Z,54.17
2022-08-07T08:46:49.552Z,53.33
2022-08-07T08:49:33.313Z,53.85
2022-08-07T08:52:17.184Z,53.90
2022-08-07T08:54:50.323Z,54.51
2022-08-07T08:57:35.228Z,54.63
2022-08-07T09:00:12.314Z,55.16
2022-08-07T09:03:00.877Z,54.70
2022-08-07T09:05:53.384Z,54.72
2022-08-07T09:08:58.063Z,53.90
2022-08-07T09:11:50.646Z,54.02
2022-08-07T09:14:42.422Z,52.69
2022-08-07T09:17:58.460Z,51.59
2022-08-07T09:20:35.607Z,51.90
2022-08-07T09:24:32.305Z,51.97
2022-08-07T09:26:22.077Z,51.73
2022-08-07T09:30:02.115Z,49.51
2022-08-07T09:32:17.175Z,48.66
2022-08-07T09:36:01.205Z,47.74
2022-08-07T09:38:01.129Z,48.41
2022-08-07T09:41:08.740Z,47.76
2022-08-07T09:44:06.708Z,47.88
2022-08-07T09:47:51.238Z,46.14
2022-08-07T09:50:26.677Z,45.12
2022-08-07T09:53:07.554Z,44.88
2022-08-07T09:56:07.480Z,44.19
2022-08-07T09:59:07.822Z,42.25
2022-08-07T10:01:54.318Z,41.43
2022-08-07T10:04:32.755Z,41.92
2022-08-07T10:07:24.331Z,40.05
2022-08-07T10:10:24.463Z,40.28
2022-08-07T10:13:55.236Z,39.68
2022-08-07T10:16:29.401Z,38.49
2022-08-07T10:19:01.397Z,38.91
2022-08-07T10:22:15.811Z,39.36
2022-08-07T10:25:09.325Z,38.38
2022-08-07T10:28:00.035Z,38.66
2022-08-07T10:30:43.631Z,39.70
2022-08-07T10:34:06.112Z,41.30
2022-08-07T10:36:43.198Z,41.95
2022-08-07T10:39:25.697Z,42.75
2022-08-07T10:42:31.396Z,43.00
2022-08-07T10:45:13.926Z,43.09
2022-08-07T10:48:35.100Z,43.68
2022-08-07T10:51:16.719Z,43.07
2022-08-07T10:54:17.808Z,43.74
2022-08-07T10:57:07.702Z,43.32
2022-08-07T11:00:04.690Z,43.68
2022-08-07T11:02:38.053Z,42.76
2022-08-07T11:05:19.237Z,43.21
2022-08-07T11:08:18.458Z,43.30
2022-08-07T11:11:01.434Z,40.89
2022-08-07T11:14:44.241Z,38.99
2022-08-07T11:16:52.765Z,39.00
2022-08-07T11:19:37.151Z,38.36
2022-08-07T11:22:26.468Z,39.57
2022-08-07T11:25:11.846Z,39.47
2022-08-07T11:28:09.369Z,38.52
2022-08-07T11:31:08.792Z,37.97
2022-08-07T11:33:58.593Z,38.70
2022-08-07T11:36:40.143Z,38.48
2022-08-07T11:39:59.197Z,38.79
2022-08-07T11:42:53.367Z,40.19
2022-08-07T11:45:33.264Z,38.90
2022-08-07T11:48:29.441Z,38.42
2022-08-07T11:51:41.331Z,38.22
2022-08-07T11:54:54.933Z,37.98
2022-08-07T11:58:00.525Z,35.98
2022-08-07T12:01:00.093Z,38.11
2022-08-07T12:04:03.429Z,38.64
2022-08-07T12:06:57.206Z,38.01
2022-08-07T12:09:35.966Z,37.05
2022-08-07T12:12:12.463Z,34.79
2022-08-07T12:15:00.262Z,35.65
2022-08-07T12:17:37.470Z,36.96
2022-08-07T12:20:14.021Z,36.79
2022-08-07T12:23:09.091Z,38.46
2022-08-07T12:26:03.053Z,38.25
2022-08-07T12:28:53.217Z,37.77
2022-08-07T12:32:02.090Z,36.49
2022-08-07T12:34:39.034Z,36.60
2022-08-07T12:37:16.995Z,37.67
2022-08-07T12:39:59.236Z,38.13
2022-08-07T12:42:32.170Z,38.82
2022-08-07T12:45:12.200Z,38.87
2022-08-07T12:48:13.150Z,38.58
2022-08-07T12:51:17.399Z,38.14
2022-08-07T12:54:02.665Z,38.48
2022-08-07T12:56:54.987Z,37.91
2022-08-07T12:59:53.819Z,37.38
2022-08-07T13:02:54.171Z,37.47
2022-08-07T13:06:03.703Z,36.47
2022-08-07T13:10:20.147Z,37.20
2022-08-07T13:12:32.110Z,38.78
2022-08-07T13:15:23.480Z,39.87
2022-08-07T13:18:10.327Z,40.62
2022-08-07T13:21:05.279Z,40.61
2022-08-07T13:24:00.788Z,39.50
2022-08-07T13:26:39.870Z,39.00
2022-08-07T13:29:15.753Z,38.30
2022-08-07T13:32:06.411Z,37.28
2022-08-07T13:35:00.026Z,37.70
2022-08-07T13:37:59.007Z,37.79
2022-08-07T13:40:42.776Z,37.21
2022-08-07T13:43:15.453Z,37.05
2022-08-07T13:46:11.576Z,37.69
2022-08-07T13:48:38.618Z,37.28
2022-08-07T13:51:27.397Z,37.65
2022-08-07T13:54:05.017Z,37.44
2022-08-07T13:56:41.202Z,36.65
2022-08-07T13:59:24.632Z,37.44
2022-08-07T14:02:10.488Z,37.31
2022-08-07T14:04:54.630Z,37.06
2022-08-07T14:07:27.908Z,37.20
2022-08-07T14:10:01.230Z,36.95
2022-08-07T14:12:54.861Z,36.64
2022-08-07T14:15:31.695Z,36.34
2022-08-07T14:18:24.041Z,36.19
2022-08-07T14:21:11.865Z,36.76
2022-08-07T14:24:09.350Z,35.90
2022-08-07T14:26:51.523Z,35.52
2022-08-07T14:30:09.308Z,36.29
2022-08-07T14:32:15.410Z,36.76
2022-08-07T14:34:47.308Z,37.27
2022-08-07T14:37:19.634Z,36.21
2022-08-07T14:40:18.233Z,35.41
2022-08-07T14:45:50.219Z,35.34
2022-08-07T14:51:16.202Z,35.22
2022-08-07T14:54:05.739Z,34.10
2022-08-07T14:56:40.543Z,33.85
2022-08-07T14:59:13.898Z,33.22
2022-08-07T15:02:34.098Z,33.72
2022-08-07T15:05:01.929Z,33.56
2022-08-07T15:07:51.412Z,33.75
2022-08-07T15:10:26.469Z,33.58
2022-08-07T15:13:01.213Z,32.79
2022-08-07T15:15:42.160Z,32.49
2022-08-07T15:25:12.961Z,33.45
2022-08-07T15:27:07.106Z,33.04
2022-08-07T15:30:04.745Z,33.63
2022-08-07T15:32:39.623Z,33.84
2022-08-07T15:36:00.857Z,33.64
2022-08-07T15:38:30.342Z,32.78
2022-08-07T15:44:00.822Z,34.17
2022-08-07T15:46:38.498Z,34.30
2022-08-07T15:49:25.470Z,34.38
2022-08-07T15:52:14.013Z,33.77
2022-08-07T15:54:49.042Z,33.59
2022-08-07T15:57:27.877Z,33.92
2022-08-07T16:00:09.653Z,34.26
2022-08-07T16:03:01.475Z,34.51
2022-08-07T16:05:31.292Z,34.57
2022-08-07T16:08:38.555Z,35.18
2022-08-07T16:11:26.915Z,35.25
2022-08-07T16:14:06.047Z,35.34
2022-08-07T16:16:51.324Z,35.67
2022-08-07T16:19:42.196Z,36.23
2022-08-07T16:22:33.674Z,36.32
2022-08-07T16:25:22.991Z,36.55
2022-08-07T16:29:18.787Z,37.69
2022-08-07T16:32:06.153Z,39.01
2022-08-07T16:34:45.504Z,40.13
2022-08-07T16:38:04.284Z,40.73
2022-08-07T16:41:07.137Z,41.25
2022-08-07T16:44:47.212Z,41.62
2022-08-07T16:47:50.913Z,42.35
2022-08-07T16:50:36.321Z,42.86
2022-08-07T16:54:01.508Z,43.37
2022-08-07T16:56:10.689Z,43.57
2022-08-07T16:59:14.466Z,44.23
2022-08-07T17:01:49.765Z,44.84
2022-08-07T17:04:24.504Z,45.29
2022-08-07T17:07:04.671Z,45.40
2022-08-07T17:10:07.929Z,45.56
2022-08-07T17:12:43.626Z,45.98
2022-08-07T17:15:15.746Z,46.10
2022-08-07T17:17:47.599Z,46.43
2022-08-07T17:20:29.697Z,46.55
2022-08-07T17:23:17.437Z,46.64
2022-08-07T17:26:00.954Z,47.30
2022-08-07T17:28:53.533Z,46.92
2022-08-07T17:31:34.608Z,47.47
2022-08-07T17:34:35.053Z,47.97
2022-08-07T17:38:05.017Z,48.32
2022-08-07T17:40:10.850Z,48.40
2022-08-07T17:42:58.567Z,48.93
2022-08-07T17:45:35.296Z,49.43
2022-08-07T17:48:12.635Z,49.61
2022-08-07T17:51:02.512Z,49.73
2022-08-07T17:54:01.293Z,50.09
2022-08-07T17:56:35.345Z,50.12
2022-08-07T17:59:17.177Z,50.41
2022-08-07T18:01:56.923Z,50.83
2022-08-07T18:04:41.239Z,50.97
2022-08-07T18:07:22.492Z,51.07
2022-08-07T18:12:07.876Z,51.37
2022-08-07T18:14:03.717Z,51.39
2022-08-07T18:16:58.527Z,52.18
2022-08-07T18:21:12.716Z,51.93
2022-08-07T18:22:53.071Z,52.23
2022-08-07T18:25:40.135Z,52.19
2022-08-07T18:28:33.961Z,52.48
2022-08-07T18:31:11.468Z,52.77
2022-08-07T18:34:37.159Z,53.23
2022-08-07T18:38:55.690Z,53.33
2022-08-07T18:40:42.343Z,53.41
2022-08-07T18:43:37.109Z,53.92
2022-08-07T18:46:33.145Z,54.00
2022-08-07T18:50:29.843Z,54.06
2022-08-07T18:52:53.557Z,54.07
2022-08-07T18:55:43.212Z,54.52
2022-08-07T18:58:22.513Z,54.62
2022-08-07T19:01:02.547Z,54.31
2022-08-07T19:03:49.505Z,54.46
2022-08-07T19:06:33.683Z,55.26
2022-08-07T19:09:55.902Z,55.38
2022-08-07T19:12:19.685Z,55.79
2022-08-07T19:15:01.537Z,56.01
2022-08-07T19:18:02.846Z,56.18
2022-08-07T19:21:09.060Z,56.38
2022-08-07T19:23:58.328Z,56.72
2022-08-07T19:28:28.331Z,56.84
2022-08-07T19:31:05.681Z,56.82
2022-08-07T19:32:26.449Z,56.87
2022-08-07T19:35:07.941Z,57.21
2022-08-07T19:37:56.918Z,57.36
2022-08-07T19:40:31.091Z,57.37
2022-08-07T19:43:10.603Z,57.51
2022-08-07T19:46:06.231Z,57.62
2022-08-07T19:48:55.312Z,57.71
2022-08-07T19:51:52.184Z,58.03
2022-08-07T19:54:33.484Z,57.96
2022-08-07T19:58:03.626Z,58.02
2022-08-07T20:00:11.000Z,58.03
2022-08-07T20:02:55.953Z,58.39
2022-08-07T20:05:28.883Z,58.34
2022-08-07T20:08:01.319Z,58.26
2022-08-07T20:10:54.462Z,58.54
2022-08-07T20:13:33.135Z,58.44
2022-08-07T20:16:04.667Z,58.60
2022-08-07T20:18:35.040Z,58.86
2022-08-07T20:21:21.989Z,58.84
2022-08-07T20:24:00.453Z,59.43
2022-08-07T20:26:32.724Z,59.28
2022-08-07T20:29:46.711Z,59.48
2022-08-07T20:32:02.858Z,59.52
2022-08-07T20:34:50.270Z,59.43
2022-08-07T20:37:29.707Z,59.70
2022-08-07T20:40:33.025Z,59.90
2022-08-07T20:42:59.123Z,60.30
2022-08-07T20:45:32.803Z,60.20
2022-08-07T20:48:29.726Z,60.50
2022-08-07T20:51:09.423Z,60.71
2022-08-07T20:54:02.196Z,60.52
2022-08-07T20:56:32.318Z,60.72
2022-08-07T20:59:06.132Z,60.60
2022-08-07T21:01:58.567Z,60.48
2022-08-07T21:04:30.594Z,60.98
2022-08-07T21:07:04.457Z,61.35
2022-08-07T21:09:52.500Z,61.47
2022-08-07T21:12:31.906Z,62.08
2022-08-07T21:15:05.524Z,62.11
2022-08-07T21:18:01.876Z,62.33
2022-08-07T21:20:30.498Z,62.65
2022-08-07T21:23:08.773Z,62.51
2022-08-07T21:25:56.847Z,62.72
2022-08-07T21:28:58.989Z,62.77
2022-08-07T21:32:42.653Z,62.85
2022-08-07T21:34:32.927Z,63.09
2022-08-07T21:37:11.575Z,63.49
2022-08-07T21:39:54.904Z,63.84
2022-08-07T21:42:51.170Z,63.42
2022-08-07T21:46:10.941Z,63.63
2022-08-07T21:48:28.681Z,63.98
2022-08-07T21:51:32.197Z,64.40
2022-08-07T21:54:18.718Z,64.58
2022-08-07T21:57:16.143Z,64.63
2022-08-07T22:00:25.215Z,65.07
2022-08-07T22:03:30.990Z,64.81
2022-08-07T22:06:30.780Z,65.15
2022-08-07T22:09:08.196Z,65.13
2022-08-07T22:12:05.086Z,65.34
2022-08-07T22:14:59.712Z,65.24
2022-08-07T22:17:45.153Z,65.02
2022-08-07T22:20:25.948Z,65.22
2022-08-07T22:23:31.704Z,65.01
2022-08-07T22:26:51.696Z,65.11
2022-08-07T22:29:33.797Z,65.34
2022-08-07T22:32:20.258Z,65.22
2022-08-07T22:34:57.590Z,65.41
2022-08-07T22:38:04.225Z,65.50
2022-08-07T22:40:49.702Z,65.56
2022-08-07T22:43:34.084Z,65.25
2022-08-07T22:46:46.987Z,65.75
2022-08-07T22:49:27.631Z,65.97
2022-08-07T22:52:37.348Z,66.15
2022-08-07T22:55:30.071Z,65.73
2022-08-07T22:58:11.775Z,65.67
2022-08-07T23:01:16.781Z,65.85
2022-08-07T23:04:16.502Z,66.02
2022-08-07T23:07:25.812Z,65.67
2022-08-07T23:10:37.777Z,65.99
2022-08-07T23:13:11.122Z,66.12
2022-08-07T23:16:07.027Z,66.08
2022-08-07T23:19:47.765Z,66.40
2022-08-07T23:23:10.040Z,66.53
2022-08-07T23:25:59.013Z,66.95
2022-08-07T23:28:53.418Z,66.83
2022-08-07T23:32:48.960Z,67.16
2022-08-07T23:35:03.434Z,67.23
2022-08-07T23:38:01.432Z,67.45
2022-08-07T23:40:49.441Z,67.59
2022-08-07T23:43:37.685Z,67.63
2022-08-07T23:46:28.228Z,67.68
2022-08-07T23:49:15.622Z,68.21
2022-08-07T23:53:01.972Z,68.33
2022-08-07T23:54:59.982Z,68.44
2022-08-07T23:57:41.085Z,68.91
